createdAt,value
2023-04-30T00:00:36.304Z,97306.59
2023-04-30T00:03:08.493Z,97306.04
2023-04-30T00:05:40.457Z,97307.20
2023-04-30T00:08:12.297Z,97307.73
2023-04-30T00:10:44.889Z,97306.53
2023-04-30T00:13:17.477Z,97306.86
2023-04-30T00:15:49.880Z,97301.52
2023-04-30T00:18:22.190Z,97299.45
2023-04-30T00:20:54.100Z,97299.04
2023-04-30T00:23:26.640Z,97299.63
2023-04-30T00:26:20.360Z,97301.00
2023-04-30T00:28:53.473Z,97300.80
2023-04-30T00:31:25.427Z,97303.34
2023-04-30T00:33:57.941Z,97302.98
2023-04-30T00:36:30.638Z,97305.23
2023-04-30T00:39:05.810Z,97303.02
2023-04-30T00:41:41.552Z,97306.76
2023-04-30T00:44:13.719Z,97310.48
2023-04-30T00:46:45.960Z,97311.80
2023-04-30T00:49:18.132Z,97313.46
2023-04-30T00:51:51.362Z,97316.37
2023-04-30T00:54:24.980Z,97318.51
2023-04-30T00:56:55.204Z,97319.65
2023-04-30T00:59:30.353Z,97318.42
2023-04-30T01:02:04.273Z,97319.74
2023-04-30T01:04:37.144Z,97318.23
2023-04-30T01:07:09.549Z,97319.61
2023-04-30T01:09:41.874Z,97319.81
2023-04-30T01:12:22.656Z,97318.91
2023-04-30T01:15:03.473Z,97319.23
2023-04-30T01:17:43.297Z,97315.67
2023-04-30T01:20:16.859Z,97313.04
2023-04-30T01:23:00.718Z,97313.59
2023-04-30T01:25:55.555Z,97316.34
2023-04-30T01:28:29.682Z,97318.16
2023-04-30T01:31:03.810Z,97315.23
2023-04-30T01:33:36.111Z,97314.17
2023-04-30T01:36:27.807Z,97315.69
2023-04-30T01:39:16.186Z,97316.20
2023-04-30T01:41:57.494Z,97314.48
2023-04-30T01:44:44.799Z,97316.28
2023-04-30T01:47:26.363Z,97321.44
2023-04-30T01:50:17.248Z,97324.05
2023-04-30T01:52:53.136Z,97322.17
2023-04-30T01:55:30.513Z,97321.91
2023-04-30T01:58:05.600Z,97321.05
2023-04-30T02:00:38.830Z,97325.91
2023-04-30T02:03:11.399Z,97327.44
2023-04-30T02:05:43.513Z,97327.06
2023-04-30T02:08:15.477Z,97324.02
2023-04-30T02:10:47.821Z,97326.92
2023-04-30T02:13:20.577Z,97328.80
2023-04-30T02:15:52.582Z,97325.16
2023-04-30T02:18:25.051Z,97327.79
2023-04-30T02:20:56.947Z,97330.61
2023-04-30T02:23:29.395Z,97331.08
2023-04-30T02:26:01.676Z,97328.44
2023-04-30T02:28:33.772Z,97328.17
2023-04-30T02:31:05.765Z,97334.39
2023-04-30T02:33:37.914Z,97334.36
2023-04-30T02:36:10.763Z,97336.58
2023-04-30T02:38:43.230Z,97337.02
2023-04-30T02:41:15.130Z,97337.94
2023-04-30T02:43:47.051Z,97339.34
2023-04-30T02:46:19.521Z,97339.91
2023-04-30T02:48:51.714Z,97342.63
2023-04-30T02:51:23.670Z,97342.70
2023-04-30T02:53:56.238Z,97343.05
2023-04-30T02:56:28.830Z,97346.70
2023-04-30T02:59:00.749Z,97349.56
2023-04-30T03:01:32.933Z,97349.40
2023-04-30T03:04:05.253Z,97352.41
2023-04-30T03:06:37.704Z,97357.40
2023-04-30T03:09:09.908Z,97358.43
2023-04-30T03:11:42.520Z,97357.31
2023-04-30T03:14:14.646Z,97359.94
2023-04-30T03:16:46.785Z,97363.97
2023-04-30T03:19:22.421Z,97364.73
2023-04-30T03:21:54.630Z,97366.99
2023-04-30T03:24:26.664Z,97366.00
2023-04-30T03:26:58.645Z,97369.80
2023-04-30T03:29:30.891Z,97371.00
2023-04-30T03:32:03.194Z,97370.10
2023-04-30T03:34:35.706Z,97369.31
2023-04-30T03:37:07.735Z,97372.14
2023-04-30T03:39:39.777Z,97375.52
2023-04-30T03:42:12.186Z,97376.27
2023-04-30T03:44:46.137Z,97381.92
2023-04-30T03:47:18.197Z,97388.17
2023-04-30T03:49:55.686Z,97392.92
2023-04-30T03:52:28.496Z,97395.12
2023-04-30T03:55:00.687Z,97400.36
2023-04-30T03:57:33.059Z,97404.75
2023-04-30T04:00:09.192Z,97404.69
2023-04-30T04:02:52.686Z,97407.06
2023-04-30T04:05:25.772Z,97411.57
2023-04-30T04:07:57.818Z,97415.09
2023-04-30T04:10:30.147Z,97421.54
2023-04-30T04:13:02.713Z,97425.52
2023-04-30T04:15:35.026Z,97429.85
2023-04-30T04:18:08.914Z,97430.88
2023-04-30T04:20:40.972Z,97437.73
2023-04-30T04:23:16.370Z,97439.67
2023-04-30T04:25:49.849Z,97445.81
2023-04-30T04:28:22.022Z,97447.92
2023-04-30T04:30:54.383Z,97443.75
2023-04-30T04:33:26.808Z,97450.34
2023-04-30T04:35:59.579Z,97453.37
2023-04-30T04:38:35.175Z,97461.90
2023-04-30T04:41:07.954Z,97463.59
2023-04-30T04:43:39.992Z,97466.48
2023-04-30T04:46:14.341Z,97467.53
2023-04-30T04:48:47.162Z,97473.30
2023-04-30T04:51:19.329Z,97471.55
2023-04-30T04:53:54.640Z,97479.79
2023-04-30T04:56:26.790Z,97484.93
2023-04-30T04:58:59.982Z,97491.30
2023-04-30T05:01:32.296Z,97492.55
2023-04-30T05:04:05.226Z,97496.98
2023-04-30T05:06:37.797Z,97498.95
2023-04-30T05:09:10.651Z,97505.19
2023-04-30T05:11:44.078Z,97506.61
2023-04-30T05:14:16.366Z,97511.94
2023-04-30T05:16:49.466Z,97517.45
2023-04-30T05:19:21.606Z,97521.61
2023-04-30T05:21:53.593Z,97523.62
2023-04-30T05:24:25.634Z,97530.79
2023-04-30T05:26:57.998Z,97533.97
2023-04-30T05:29:29.985Z,97539.38
2023-04-30T05:32:03.354Z,97542.33
2023-04-30T05:34:35.799Z,97549.00
2023-04-30T05:37:07.937Z,97551.16
2023-04-30T05:39:40.148Z,97553.66
2023-04-30T05:42:12.855Z,97561.85
2023-04-30T05:44:45.105Z,97562.92
2023-04-30T05:47:17.188Z,97567.23
2023-04-30T05:49:49.082Z,97569.84
2023-04-30T05:52:22.573Z,97575.34
2023-04-30T05:54:54.555Z,97577.39
2023-04-30T05:57:26.829Z,97576.82
2023-04-30T05:59:59.146Z,97578.67
2023-04-30T06:02:31.492Z,97584.83
2023-04-30T06:05:04.117Z,97590.96
2023-04-30T06:07:36.985Z,97592.79
2023-04-30T06:10:11.101Z,97594.73
2023-04-30T06:12:43.205Z,97603.16
2023-04-30T06:15:15.496Z,97603.14
2023-04-30T06:17:47.716Z,97607.45
2023-04-30T06:20:20.786Z,97607.27
2023-04-30T06:22:53.337Z,97609.90
2023-04-30T06:25:24.728Z,97609.79
2023-04-30T06:27:57.696Z,97614.85
2023-04-30T06:30:31.700Z,97613.11
2023-04-30T06:33:04.925Z,97615.92
2023-04-30T06:35:37.348Z,97617.40
2023-04-30T06:38:09.378Z,97620.45
2023-04-30T06:40:43.496Z,97618.14
2023-04-30T06:43:15.820Z,97618.10
2023-04-30T06:45:50.931Z,97621.16
2023-04-30T06:48:23.456Z,97619.59
2023-04-30T06:50:55.539Z,97625.29
2023-04-30T06:53:28.032Z,97625.38
2023-04-30T06:56:02.468Z,97626.45
2023-04-30T06:58:37.320Z,97625.34
2023-04-30T07:01:09.712Z,97626.39
2023-04-30T07:03:46.121Z,97631.50
2023-04-30T07:06:18.514Z,97627.47
2023-04-30T07:08:51.469Z,97627.89
2023-04-30T07:11:23.794Z,97628.87
2023-04-30T07:13:56.046Z,97633.56
2023-04-30T07:16:29.351Z,97632.20
2023-04-30T07:19:00.227Z,97632.94
2023-04-30T07:21:33.008Z,97632.14
2023-04-30T07:24:05.905Z,97632.09
2023-04-30T07:26:43.552Z,97637.02
2023-04-30T07:29:19.144Z,97642.67
2023-04-30T07:31:52.000Z,97647.50
2023-04-30T07:34:24.761Z,97649.33
2023-04-30T07:36:56.851Z,97651.79
2023-04-30T07:39:29.000Z,97655.48
2023-04-30T07:42:03.665Z,97653.04
2023-04-30T07:44:35.975Z,97657.73
2023-04-30T07:47:08.207Z,97659.24
2023-04-30T07:49:40.608Z,97653.12
2023-04-30T07:52:12.794Z,97659.16
2023-04-30T07:54:44.964Z,97663.92
2023-04-30T07:57:16.963Z,97666.33
2023-04-30T07:59:51.388Z,97671.14
2023-04-30T08:02:25.311Z,97675.95
2023-04-30T08:04:57.409Z,97679.45
2023-04-30T08:07:29.438Z,97683.71
2023-04-30T08:10:02.338Z,97687.35
2023-04-30T08:12:37.309Z,97691.69
2023-04-30T08:15:10.761Z,97690.23
2023-04-30T08:17:43.187Z,97688.89
2023-04-30T08:20:16.026Z,97697.91
2023-04-30T08:22:48.533Z,97695.30
2023-04-30T08:25:20.536Z,97699.19
2023-04-30T08:27:52.576Z,97700.14
2023-04-30T08:30:25.248Z,97704.71
2023-04-30T08:32:57.870Z,97707.77
2023-04-30T08:35:30.358Z,97706.45
2023-04-30T08:38:02.225Z,97703.35
2023-04-30T08:40:51.215Z,97711.84
2023-04-30T08:43:24.551Z,97709.99
2023-04-30T08:45:57.125Z,97707.15
2023-04-30T08:48:29.751Z,97719.73
2023-04-30T08:51:04.430Z,97717.89
2023-04-30T08:53:39.616Z,97720.08
2023-04-30T08:56:13.544Z,97724.50
2023-04-30T08:58:45.959Z,97730.10
2023-04-30T09:01:18.785Z,97731.09
2023-04-30T09:03:51.025Z,97731.20
2023-04-30T09:06:23.348Z,97734.52
2023-04-30T09:08:55.797Z,97740.84
2023-04-30T09:11:29.966Z,97738.27
2023-04-30T09:14:03.604Z,97734.02
2023-04-30T09:16:49.336Z,97738.84
2023-04-30T09:19:29.089Z,97745.00
2023-04-30T09:22:02.175Z,97750.35
2023-04-30T09:24:49.748Z,97750.29
2023-04-30T09:27:23.438Z,97745.90
2023-04-30T09:29:55.763Z,97747.92
2023-04-30T09:32:28.197Z,97749.98
2023-04-30T09:35:00.701Z,97745.08
2023-04-30T09:37:41.382Z,97743.10
2023-04-30T09:40:14.575Z,97749.35
2023-04-30T09:45:51.761Z,97751.63
2023-04-30T09:48:25.485Z,97753.57
2023-04-30T09:50:57.611Z,97757.30
2023-04-30T09:53:30.481Z,97760.46
2023-04-30T09:56:08.596Z,97758.74
2023-04-30T09:58:44.681Z,97755.14
2023-04-30T10:01:16.831Z,97750.60
2023-04-30T10:03:50.447Z,97749.89
2023-04-30T10:06:24.547Z,97750.23
2023-04-30T10:08:59.834Z,97746.70
2023-04-30T10:11:38.281Z,97748.84
2023-04-30T10:14:14.387Z,97746.72
2023-04-30T10:16:52.983Z,97750.06
2023-04-30T10:19:27.432Z,97757.14
2023-04-30T10:22:01.884Z,97743.54
2023-04-30T10:24:37.655Z,97739.88
2023-04-30T10:27:11.040Z,97741.73
2023-04-30T10:29:46.762Z,97742.51
2023-04-30T10:32:19.886Z,97736.50
2023-04-30T10:35:02.600Z,97730.71
2023-04-30T10:37:38.350Z,97739.18
2023-04-30T10:40:12.941Z,97743.85
2023-04-30T10:42:49.714Z,97744.33
2023-04-30T10:45:35.993Z,97744.92
2023-04-30T10:48:08.647Z,97742.83
2023-04-30T10:50:46.472Z,97735.75
2023-04-30T10:53:23.528Z,97740.73
2023-04-30T10:56:00.841Z,97738.48
2023-04-30T10:58:34.696Z,97742.61
2023-04-30T11:01:08.841Z,97740.55
2023-04-30T11:03:42.676Z,97745.02
2023-04-30T11:06:20.260Z,97740.44
2023-04-30T11:08:52.627Z,97742.98
2023-04-30T11:11:24.806Z,97744.86
2023-04-30T11:14:03.488Z,97749.59
2023-04-30T11:16:37.785Z,97743.98
2023-04-30T11:19:15.695Z,97745.29
2023-04-30T11:22:20.723Z,97746.41
2023-04-30T11:25:02.917Z,97748.61
2023-04-30T11:27:35.848Z,97741.35
2023-04-30T11:30:15.560Z,97740.02
2023-04-30T11:32:49.411Z,97745.72
2023-04-30T11:35:22.651Z,97748.70
2023-04-30T11:37:59.558Z,97747.65
2023-04-30T11:40:36.958Z,97750.48
2023-04-30T11:43:09.071Z,97754.00
2023-04-30T11:45:42.816Z,97759.60
2023-04-30T11:48:16.259Z,97756.55
2023-04-30T11:50:48.788Z,97751.32
2023-04-30T11:53:28.129Z,97751.29
2023-04-30T11:56:04.001Z,97747.97
2023-04-30T11:58:40.503Z,97755.50
2023-04-30T12:01:13.442Z,97751.15
2023-04-30T12:03:47.134Z,97752.73
2023-04-30T12:06:27.952Z,97751.16
2023-04-30T12:09:02.035Z,97747.10
2023-04-30T12:11:35.299Z,97753.82
2023-04-30T12:14:10.979Z,97754.70
2023-04-30T12:16:49.619Z,97753.95
2023-04-30T12:19:25.508Z,97752.80
2023-04-30T12:21:58.262Z,97751.86
2023-04-30T12:24:30.591Z,97750.58
2023-04-30T12:27:04.517Z,97748.95
2023-04-30T12:29:36.681Z,97746.08
2023-04-30T12:32:08.935Z,97747.36
2023-04-30T12:34:43.365Z,97738.73
2023-04-30T12:37:18.907Z,97733.81
2023-04-30T12:39:52.110Z,97741.48
2023-04-30T12:42:22.459Z,97737.70
2023-04-30T12:44:55.202Z,97739.21
2023-04-30T12:47:28.282Z,97738.12
2023-04-30T12:50:01.315Z,97731.27
2023-04-30T12:52:36.011Z,97737.52
2023-04-30T12:55:21.180Z,97735.15
2023-04-30T12:58:10.436Z,97733.77
2023-04-30T13:00:52.084Z,97735.85
2023-04-30T13:03:25.049Z,97735.80
2023-04-30T13:05:58.937Z,97735.60
2023-04-30T13:08:37.246Z,97740.05
2023-04-30T13:11:18.830Z,97734.71
2023-04-30T13:13:51.566Z,97741.30
2023-04-30T13:16:25.031Z,97742.84
2023-04-30T13:18:57.540Z,97734.50
2023-04-30T13:21:29.627Z,97735.63
2023-04-30T13:24:02.190Z,97730.84
2023-04-30T13:26:34.995Z,97738.92
2023-04-30T13:29:07.794Z,97736.91
2023-04-30T13:31:40.011Z,97739.58
2023-04-30T13:34:12.393Z,97735.34
2023-04-30T13:36:47.082Z,97728.29
2023-04-30T13:39:19.909Z,97734.27
2023-04-30T13:41:50.888Z,97732.06
2023-04-30T13:44:23.175Z,97732.60
2023-04-30T13:46:56.390Z,97734.49
2023-04-30T13:49:29.439Z,97730.48
2023-04-30T13:52:01.807Z,97729.37
2023-04-30T13:54:34.397Z,97724.77
2023-04-30T13:57:07.097Z,97721.40
2023-04-30T13:59:39.425Z,97724.74
2023-04-30T14:02:11.523Z,97727.39
2023-04-30T14:04:54.661Z,97731.39
2023-04-30T14:07:36.252Z,97728.21
2023-04-30T14:10:11.264Z,97727.83
2023-04-30T14:12:44.916Z,97723.21
2023-04-30T14:15:17.086Z,97722.34
2023-04-30T14:17:54.667Z,97728.45
2023-04-30T14:20:27.317Z,97731.25
2023-04-30T14:23:00.400Z,97727.02
2023-04-30T14:25:34.525Z,97731.05
2023-04-30T14:28:06.796Z,97730.80
2023-04-30T14:30:39.136Z,97729.77
2023-04-30T14:33:13.165Z,97734.31
2023-04-30T14:35:45.768Z,97733.91
2023-04-30T14:38:17.891Z,97736.08
2023-04-30T14:40:50.474Z,97735.02
2023-04-30T14:43:22.426Z,97734.98
2023-04-30T14:45:55.369Z,97732.27
2023-04-30T14:48:27.700Z,97742.02
2023-04-30T14:50:59.757Z,97743.17
2023-04-30T14:53:33.840Z,97742.30
2023-04-30T14:56:07.412Z,97742.04
2023-04-30T14:58:39.536Z,97740.30
2023-04-30T15:01:12.841Z,97739.95
2023-04-30T15:03:45.375Z,97742.00
2023-04-30T15:06:18.166Z,97741.41
2023-04-30T15:08:50.293Z,97738.08
2023-04-30T15:11:22.699Z,97743.92
2023-04-30T15:13:55.902Z,97739.54
2023-04-30T15:16:29.565Z,97741.56
2023-04-30T15:19:02.675Z,97745.54
2023-04-30T15:21:34.864Z,97745.02
2023-04-30T15:24:08.356Z,97749.30
2023-04-30T15:26:41.372Z,97745.05
2023-04-30T15:29:14.457Z,97748.35
2023-04-30T15:31:52.089Z,97747.23
2023-04-30T15:34:26.665Z,97742.35
2023-04-30T15:37:00.634Z,97749.89
2023-04-30T15:39:35.497Z,97752.20
2023-04-30T15:42:08.630Z,97749.07
2023-04-30T15:44:42.532Z,97749.77
2023-04-30T15:47:19.342Z,97753.10
2023-04-30T15:49:52.241Z,97756.24
2023-04-30T15:52:25.685Z,97759.95
2023-04-30T15:54:58.840Z,97760.30
2023-04-30T15:57:30.820Z,97763.71
2023-04-30T16:00:06.780Z,97763.41
2023-04-30T16:02:45.949Z,97763.68
2023-04-30T16:05:19.619Z,97761.50
2023-04-30T16:08:07.626Z,97762.11
2023-04-30T16:10:46.657Z,97759.77
2023-04-30T16:13:23.825Z,97757.34
2023-04-30T16:15:57.968Z,97756.50
2023-04-30T16:18:35.084Z,97756.15
2023-04-30T16:21:10.810Z,97755.91
2023-04-30T16:23:44.840Z,97760.57
2023-04-30T16:26:17.865Z,97763.92
2023-04-30T16:28:58.189Z,97764.64
2023-04-30T16:31:36.610Z,97764.04
2023-04-30T16:34:22.429Z,97765.75
2023-04-30T16:37:01.679Z,97762.89
2023-04-30T16:39:34.675Z,97768.45
2023-04-30T16:42:08.067Z,97772.91
2023-04-30T16:44:38.306Z,97776.31
2023-04-30T16:47:10.576Z,97775.71
2023-04-30T16:49:43.129Z,97778.40
2023-04-30T16:52:15.181Z,97780.88
2023-04-30T16:54:47.168Z,97782.71
2023-04-30T16:57:19.295Z,97786.88
2023-04-30T16:59:51.388Z,97788.86
2023-04-30T17:02:25.842Z,97788.40
2023-04-30T17:04:57.885Z,97789.40
2023-04-30T17:07:29.953Z,97793.09
2023-04-30T17:10:02.550Z,97790.31
2023-04-30T17:12:34.962Z,97795.98
2023-04-30T17:15:08.237Z,97792.98
2023-04-30T17:17:41.240Z,97795.21
2023-04-30T17:20:14.982Z,97794.46
2023-04-30T17:22:47.689Z,97796.55
2023-04-30T17:25:19.750Z,97797.54
2023-04-30T17:27:51.903Z,97799.47
2023-04-30T17:30:26.424Z,97804.53
2023-04-30T17:33:02.087Z,97810.62
2023-04-30T17:35:35.133Z,97815.63
2023-04-30T17:38:07.302Z,97818.52
2023-04-30T17:40:39.394Z,97823.55
2023-04-30T17:43:11.678Z,97828.73
2023-04-30T17:45:48.305Z,97827.30
2023-04-30T17:48:33.728Z,97827.59
2023-04-30T17:51:07.664Z,97835.08
2023-04-30T17:53:42.054Z,97836.02
2023-04-30T17:56:16.580Z,97842.98
2023-04-30T17:58:51.044Z,97848.57
2023-04-30T18:01:27.087Z,97850.48
2023-04-30T18:04:04.913Z,97849.61
2023-04-30T18:06:38.726Z,97851.17
2023-04-30T18:09:12.185Z,97853.61
2023-04-30T18:11:45.324Z,97851.40
2023-04-30T18:14:19.180Z,97851.37
2023-04-30T18:16:54.844Z,97855.11
2023-04-30T18:19:29.588Z,97855.02
2023-04-30T18:22:03.841Z,97860.16
2023-04-30T18:24:37.728Z,97862.00
2023-04-30T18:27:10.420Z,97868.02
2023-04-30T18:29:44.619Z,97869.30
2023-04-30T18:32:17.760Z,97876.55
2023-04-30T18:34:49.858Z,97876.14
2023-04-30T18:37:22.105Z,97876.23
2023-04-30T18:39:55.051Z,97876.79
2023-04-30T18:42:27.200Z,97879.35
2023-04-30T18:44:59.454Z,97879.46
2023-04-30T18:47:33.326Z,97882.42
2023-04-30T18:50:10.824Z,97887.42
2023-04-30T18:52:44.048Z,97887.09
2023-04-30T18:55:16.786Z,97888.48
2023-04-30T18:57:50.811Z,97887.33
2023-04-30T19:00:23.228Z,97889.42
2023-04-30T19:02:55.836Z,97894.70
2023-04-30T19:05:28.243Z,97894.20
2023-04-30T19:08:00.614Z,97891.20
2023-04-30T19:10:32.875Z,97894.14
2023-04-30T19:13:05.388Z,97897.04
2023-04-30T19:15:37.445Z,97900.11
2023-04-30T19:18:11.011Z,97899.16
2023-04-30T19:20:43.575Z,97903.59
2023-04-30T19:23:15.810Z,97905.58
2023-04-30T19:25:50.678Z,97906.08
2023-04-30T19:28:22.916Z,97910.55
2023-04-30T19:30:56.490Z,97912.85
2023-04-30T19:33:30.329Z,97914.70
2023-04-30T19:36:03.223Z,97914.63
2023-04-30T19:38:35.352Z,97918.14
2023-04-30T19:41:07.584Z,97921.13
2023-04-30T19:43:40.393Z,97923.42
2023-04-30T19:46:13.074Z,97926.15
2023-04-30T19:48:47.510Z,97927.30
2023-04-30T19:51:20.318Z,97929.63
2023-04-30T19:53:53.346Z,97926.69
2023-04-30T19:56:25.847Z,97930.61
2023-04-30T19:58:58.266Z,97932.40
2023-04-30T20:01:30.660Z,97931.77
2023-04-30T20:04:04.918Z,97938.02
2023-04-30T20:06:38.985Z,97940.14
2023-04-30T20:09:12.054Z,97941.78
2023-04-30T20:11:53.959Z,97941.48
2023-04-30T20:14:31.906Z,97947.92
2023-04-30T20:17:05.238Z,97949.39
2023-04-30T20:19:40.113Z,97951.41
2023-04-30T20:22:17.139Z,97952.90
2023-04-30T20:24:54.068Z,97956.23
2023-04-30T20:27:35.863Z,97955.60
2023-04-30T20:30:17.766Z,97956.89
2023-04-30T20:32:51.425Z,97955.89
2023-04-30T20:35:23.941Z,97959.54
2023-04-30T20:37:55.967Z,97957.34
2023-04-30T20:40:28.425Z,97958.98
2023-04-30T20:43:00.749Z,97956.64
2023-04-30T20:45:33.635Z,97961.02
2023-04-30T20:48:06.059Z,97957.47
2023-04-30T20:50:38.824Z,97958.09
2023-04-30T20:53:12.024Z,97958.44
2023-04-30T20:56:04.719Z,97961.92
2023-04-30T20:58:37.244Z,97960.27
2023-04-30T21:01:09.305Z,97962.19
2023-04-30T21:03:41.559Z,97961.69
2023-04-30T21:06:13.426Z,97964.12
2023-04-30T21:08:45.416Z,97963.96
2023-04-30T21:11:17.447Z,97967.78
2023-04-30T21:13:51.255Z,97970.42
2023-04-30T21:16:23.736Z,97972.34
2023-04-30T21:18:56.202Z,97977.73
2023-04-30T21:21:28.955Z,97977.27
2023-04-30T21:24:01.724Z,97978.83
2023-04-30T21:26:34.006Z,97977.48
2023-04-30T21:29:06.145Z,97979.54
2023-04-30T21:31:39.060Z,97979.56
2023-04-30T21:34:11.126Z,97981.48
2023-04-30T21:36:43.447Z,97982.02
2023-04-30T21:39:15.472Z,97982.34
2023-04-30T21:41:47.448Z,97984.23
2023-04-30T21:44:20.971Z,97981.70
2023-04-30T21:46:53.178Z,97984.63
2023-04-30T21:49:25.245Z,97985.52
2023-04-30T21:51:58.832Z,97986.40
2023-04-30T21:54:29.048Z,97991.23
2023-04-30T21:57:01.244Z,97988.83
2023-04-30T21:59:34.837Z,97989.17
2023-04-30T22:02:19.920Z,97991.58
2023-04-30T22:04:55.814Z,97994.99
2023-04-30T22:07:28.383Z,97992.77
2023-04-30T22:10:00.565Z,97998.25
2023-04-30T22:12:32.940Z,98001.17
2023-04-30T22:15:09.396Z,98000.48
2023-04-30T22:17:41.906Z,98002.02
2023-04-30T22:20:15.111Z,98004.10
2023-04-30T22:22:47.025Z,98011.14
2023-04-30T22:25:20.416Z,98009.78
2023-04-30T22:27:52.532Z,98009.27
2023-04-30T22:30:24.982Z,98010.12
2023-04-30T22:33:00.236Z,98010.11
2023-04-30T22:35:33.278Z,98011.84
2023-04-30T22:38:11.315Z,98014.59
2023-04-30T22:40:43.637Z,98019.73
2023-04-30T22:43:16.562Z,98017.16
2023-04-30T22:45:48.805Z,98019.89
2023-04-30T22:48:21.015Z,98018.02
2023-04-30T22:50:53.288Z,98019.70
2023-04-30T22:53:25.339Z,98018.67
2023-04-30T22:55:58.280Z,98023.47
2023-04-30T22:58:30.353Z,98026.04
2023-04-30T23:01:02.684Z,98022.79
2023-04-30T23:03:35.800Z,98023.81
2023-04-30T23:06:08.031Z,98022.25
2023-04-30T23:08:40.210Z,98027.05
2023-04-30T23:11:12.745Z,98027.73
2023-04-30T23:13:44.961Z,98029.25
2023-04-30T23:16:17.881Z,98029.93
2023-04-30T23:18:50.090Z,98026.31
2023-04-30T23:21:22.225Z,98027.31
2023-04-30T23:23:54.464Z,98019.96
2023-04-30T23:26:26.772Z,98022.52
2023-04-30T23:28:59.747Z,98020.80
2023-04-30T23:31:34.602Z,98026.94
2023-04-30T23:34:06.930Z,98026.20
2023-04-30T23:36:39.014Z,98026.87
2023-04-30T23:39:10.982Z,98027.71
2023-04-30T23:41:43.872Z,98026.00
2023-04-30T23:44:15.839Z,98025.48
2023-04-30T23:46:48.096Z,98027.86
2023-04-30T23:49:20.778Z,98027.35
2023-04-30T23:51:53.502Z,98027.17
2023-04-30T23:54:25.472Z,98026.50
2023-04-30T23:56:57.469Z,98024.98
2023-04-30T23:59:29.536Z,98023.77
